Time;durP1;ratioP1;P1;durP2;ratioP2;P2;SDS_P1;SDS_P2;PMS_P1;PMS_P2;Temp;Humidity;BMP_temperature;BMP_pressure;BME280_temperature;BME280_humidity;BME280_pressure;Samples;Min_cycle;Max_cycle;Signal;HPM_P1;HPM_P2
2024/03/19 00:01:46;;;;;;;;;0.00;0.00;;;;;16.24;100.00;101442.47;6296119;22;29433;-85
2024/03/19 00:04:11;;;;;;;;;0.00;0.00;;;;;16.28;100.00;101438.78;6295549;22;47576;-85
2024/03/19 00:06:37;;;;;;;;;0.00;0.00;;;;;16.24;100.00;101438.06;6324279;22;38521;-84
2024/03/19 00:09:03;;;;;;;;;0.00;0.00;;;;;16.30;100.00;101446.63;6297163;22;28416;-86
2024/03/19 00:11:29;;;;;;;;;0.00;0.00;;;;;16.24;100.00;101442.47;6296695;22;28448;-85
2024/03/19 00:13:54;;;;;;;;;0.00;0.00;;;;;16.17;100.00;101428.72;6324887;22;28344;-85
2024/03/19 00:16:20;;;;;;;;;0.00;0.00;;;;;16.19;100.00;101440.03;6295849;22;40187;-86
2024/03/19 00:18:45;;;;;;;;;0.00;0.00;;;;;16.16;100.00;101434.06;6296043;22;28495;-86
2024/03/19 00:21:11;;;;;;;;;0.00;0.00;;;;;16.10;100.00;101429.88;6271037;22;30171;-86
2024/03/19 00:23:36;;;;;;;;;0.00;0.00;;;;;16.11;100.00;101422.88;6296460;22;28186;-86
2024/03/19 00:26:02;;;;;;;;;0.00;0.00;;;;;16.15;100.00;101437.59;6324395;22;27841;-85
2024/03/19 00:28:27;;;;;;;;;0.00;0.00;;;;;15.97;100.00;101424.31;6322777;22;28672;-86
2024/03/19 00:30:55;;;;;;;;;0.00;0.00;;;;;16.00;100.00;101433.81;6295949;22;36431;-85
2024/03/19 00:33:21;;;;;;;;;0.00;0.00;;;;;15.98;100.00;101441.75;6297051;22;28439;-86
2024/03/19 00:35:47;;;;;;;;;0.00;0.00;;;;;15.97;100.00;101436.56;6324816;22;28437;-86
2024/03/19 00:38:13;;;;;;;;;0.00;0.00;;;;;15.93;100.00;101440.25;6297468;22;28317;-86
2024/03/19 00:40:38;;;;;;;;;0.00;0.00;;;;;15.91;100.00;101442.91;6324384;22;29341;-85
2024/03/19 00:43:04;;;;;;;;;0.00;0.00;;;;;15.83;100.00;101431.88;6323517;22;28299;-86
2024/03/19 00:45:29;;;;;;;;;0.00;0.00;;;;;15.81;100.00;101436.34;6323745;22;37844;-84
2024/03/19 00:47:55;;;;;;;;;0.00;0.00;;;;;15.84;100.00;101444.94;6297242;22;28407;-85
2024/03/19 00:50:20;;;;;;;;;0.00;0.00;;;;;15.79;100.00;101439.03;6323168;22;28258;-85
2024/03/19 00:52:46;;;;;;;;;0.00;0.00;;;;;15.79;100.00;101446.91;6296824;22;28360;-85
2024/03/19 00:55:12;;;;;;;;;0.00;0.00;;;;;15.76;100.00;101439.13;6324387;22;28363;-85
2024/03/19 00:57:37;;;;;;;;;0.00;0.00;;;;;15.72;100.00;101432.28;6297102;22;28351;-86
2024/03/19 01:00:10;;;;;;;;;0.00;0.00;;;;;15.67;100.00;101429.84;6323807;22;29508;-85
2024/03/19 01:02:40;;;;;;;;;0.00;0.00;;;;;15.58;100.00;101435.44;6324169;22;28364;-86
2024/03/19 01:05:08;;;;;;;;;0.00;0.00;;;;;15.69;100.00;101435.00;6324349;22;28529;-86
2024/03/19 01:07:37;;;;;;;;;0.00;0.00;;;;;15.65;100.00;101436.88;6297339;22;28485;-85
2024/03/19 01:10:04;;;;;;;;;0.00;0.00;;;;;15.65;100.00;101438.66;6296587;22;29307;-86
2024/03/19 01:12:29;;;;;;;;;1.00;1.00;;;;;15.58;100.00;101435.44;6324227;22;28345;-85
2024/03/19 01:14:55;;;;;;;;;0.00;0.00;;;;;16.12;100.00;101435.09;6323954;22;28475;-85
2024/03/19 01:17:21;;;;;;;;;0.00;0.00;;;;;15.59;100.00;101431.03;6324154;22;28386;-85
2024/03/19 01:19:46;;;;;;;;;0.00;0.00;;;;;15.51;100.00;101430.47;6322608;22;30359;-86
2024/03/19 01:22:12;;;;;;;;;0.00;0.00;;;;;15.47;100.00;101427.09;6324102;22;28443;-86
2024/03/19 01:24:37;;;;;;;;;0.00;0.00;;;;;15.93;100.00;101421.84;6269555;22;35710;-85
2024/03/19 01:27:04;;;;;;;;;0.00;0.00;;;;;15.68;100.00;101421.03;6324267;22;28522;-86
2024/03/19 01:29:30;;;;;;;;;0.00;0.00;;;;;15.50;100.00;101427.00;6323848;22;28319;-85
2024/03/19 01:31:55;;;;;;;;;0.00;0.00;;;;;15.47;100.00;101427.09;6322369;22;28770;-85
2024/03/19 01:34:21;;;;;;;;;0.00;0.00;;;;;15.39;100.00;101429.19;6324063;22;28339;-84
2024/03/19 01:36:46;;;;;;;;;0.00;0.00;;;;;15.35;100.00;101423.19;6296460;22;42940;-85
2024/03/19 01:39:11;;;;;;;;;0.00;0.00;;;;;15.33;100.00;101424.19;6323772;22;29425;-85
2024/03/19 01:41:37;;;;;;;;;0.00;0.00;;;;;15.28;100.00;101421.72;6296362;22;28724;-85
2024/03/19 01:44:03;;;;;;;;;0.00;0.00;;;;;15.27;100.00;101422.63;6295288;22;28325;-85
2024/03/19 01:46:29;;;;;;;;;0.00;0.00;;;;;15.25;100.00;101422.69;6324127;22;28541;-85
2024/03/19 01:48:58;;;;;;;;;0.00;0.00;;;;;15.25;100.00;101424.47;6324418;22;29185;-84
2024/03/19 01:51:25;;;;;;;;;0.00;0.00;;;;;15.20;100.00;101411.50;6295847;22;28440;-84
2024/03/19 01:53:51;;;;;;;;;0.00;0.00;;;;;15.17;100.00;101409.00;6323993;22;28402;-85
2024/03/19 01:56:17;;;;;;;;;0.00;0.00;;;;;15.18;100.00;101417.75;6296785;22;28343;-85
2024/03/19 01:58:46;;;;;;;;;0.00;0.00;;;;;15.17;100.00;101409.00;6295666;22;29262;-85
2024/03/19 02:01:13;;;;;;;;;0.00;0.00;;;;;15.14;100.00;101406.50;6296454;22;28774;-85
2024/03/19 02:03:38;;;;;;;;;0.00;0.00;;;;;15.11;100.00;101406.63;6296641;22;28342;-85
2024/03/19 02:06:05;;;;;;;;;0.00;0.00;;;;;15.03;100.00;101406.91;6296394;22;45515;-85
2024/03/19 02:08:30;;;;;;;;;0.00;0.00;;;;;15.04;100.00;101411.25;6322644;22;28531;-83
2024/03/19 02:10:55;;;;;;;;;0.00;0.00;;;;;15.01;100.00;101408.72;6269453;22;29795;-85
2024/03/19 02:13:21;;;;;;;;;0.00;0.00;;;;;14.96;100.00;101407.19;6269629;22;28709;-85
2024/03/19 02:15:47;;;;;;;;;0.00;0.00;;;;;14.96;100.00;101418.53;6296790;22;28471;-85
2024/03/19 02:18:13;;;;;;;;;0.00;0.00;;;;;14.94;100.00;101416.88;6322935;22;29546;-85
2024/03/19 02:20:38;;;;;;;;;0.00;0.00;;;;;14.89;100.00;101420.53;6296748;22;28499;-85
2024/03/19 02:23:04;;;;;;;;;0.00;0.00;;;;;14.87;100.00;101417.06;6323545;22;30749;-86
2024/03/19 02:25:29;;;;;;;;;0.00;0.00;;;;;14.86;100.00;101420.63;6322373;22;28533;-85
2024/03/19 02:27:55;;;;;;;;;0.00;0.00;;;;;15.00;100.00;101419.25;6295504;22;40019;-85
2024/03/19 02:30:20;;;;;;;;;0.00;0.00;;;;;15.02;100.00;101402.56;6295854;22;28578;-85
2024/03/19 02:32:45;;;;;;;;;0.00;0.00;;;;;15.04;100.00;101413.88;6296550;22;28396;-86
2024/03/19 02:35:11;;;;;;;;;0.00;0.00;;;;;15.07;100.00;101412.88;6323176;22;37716;-86
2024/03/19 02:37:36;;;;;;;;;0.00;0.00;;;;;14.96;100.00;101415.06;6323131;22;53469;-84
2024/03/19 02:40:05;;;;;;;;;0.00;0.00;;;;;14.87;100.00;101408.38;6323454;22;28533;-85
2024/03/19 02:42:30;;;;;;;;;0.00;0.00;;;;;14.79;100.00;101406.03;6321288;22;28297;-85
2024/03/19 02:44:56;;;;;;;;;0.00;0.00;;;;;14.92;100.00;101403.81;6323551;22;28341;-86
2024/03/19 02:47:21;;;;;;;;;0.00;0.00;;;;;15.01;100.00;101403.47;6295384;22;41072;-85
2024/03/19 02:49:46;;;;;;;;;0.00;0.00;;;;;14.86;100.00;101411.91;6322528;22;28286;-86
2024/03/19 02:52:12;;;;;;;;;0.00;0.00;;;;;14.85;100.00;101408.41;6294937;22;41852;-85
2024/03/19 02:54:37;;;;;;;;;0.00;0.00;;;;;15.01;100.00;101408.72;6322934;22;32188;-85
2024/03/19 02:57:03;;;;;;;;;0.00;0.00;;;;;15.63;100.00;101409.00;6295737;22;28392;-85
2024/03/19 02:59:28;;;;;;;;;0.00;0.00;;;;;15.88;100.00;101408.94;6321844;22;28785;-86
2024/03/19 03:01:54;;;;;;;;;0.00;0.00;;;;;16.00;100.00;101416.28;6322608;22;47297;-85
2024/03/19 03:04:19;;;;;;;;;0.00;0.00;;;;;15.91;100.00;101411.41;6321586;22;28363;-85
2024/03/19 03:06:44;;;;;;;;;0.00;0.00;;;;;15.97;100.00;101411.19;6295264;22;39652;-85
2024/03/19 03:09:10;;;;;;;;;0.00;0.00;;;;;16.11;100.00;101407.97;6296877;22;44179;-84
2024/03/19 03:11:36;;;;;;;;;0.00;0.00;;;;;16.23;100.00;101411.84;6296064;22;46888;-84
2024/03/19 03:14:02;;;;;;;;;0.00;0.00;;;;;16.26;100.00;101420.47;6296844;22;28397;-85
2024/03/19 03:16:27;;;;;;;;;0.00;0.00;;;;;16.32;100.00;101413.25;6270354;22;47757;-85
2024/03/19 03:18:52;;;;;;;;;0.00;0.00;;;;;16.33;100.00;101407.94;6324456;22;36375;-85
2024/03/19 03:21:18;;;;;;;;;0.00;0.00;;;;;16.35;100.00;101402.63;6323869;22;39389;-85
2024/03/19 03:23:44;;;;;;;;;0.00;0.00;;;;;16.35;100.00;101397.38;6325337;22;28523;-85
2024/03/19 03:26:09;;;;;;;;;0.00;0.00;;;;;16.34;100.00;101408.78;6296793;22;29589;-85
2024/03/19 03:28:35;;;;;;;;;0.00;0.00;;;;;16.33;100.00;101402.69;6325333;22;28285;-85
2024/03/19 03:31:01;;;;;;;;;0.00;0.00;;;;;16.36;100.00;101402.56;6323442;22;44350;-85
2024/03/19 03:33:27;;;;;;;;;0.00;0.00;;;;;16.41;100.00;101404.97;6324315;22;28458;-86
2024/03/19 03:35:52;;;;;;;;;1.00;1.00;;;;;16.08;100.00;101413.34;6324529;22;28368;-86
2024/03/19 03:38:18;;;;;;;;;0.00;0.00;;;;;16.08;100.00;101409.88;6297055;22;42377;-85
2024/03/19 03:40:43;;;;;;;;;0.00;0.00;;;;;16.15;100.00;101417.44;6324410;22;28729;-86
2024/03/19 03:43:08;;;;;;;;;0.00;0.00;;;;;16.16;100.00;101410.44;6297437;22;28392;-86
2024/03/19 03:45:34;;;;;;;;;0.00;0.00;;;;;16.20;100.00;101414.63;6271118;22;32380;-85
2024/03/19 03:48:00;;;;;;;;;0.00;0.00;;;;;16.18;100.00;101414.69;6324109;22;28303;-85
2024/03/19 03:50:25;;;;;;;;;0.00;0.00;;;;;16.24;100.00;101421.47;6323681;22;28474;-85
2024/03/19 03:52:50;;;;;;;;;0.00;0.00;;;;;16.29;100.00;101421.25;6324953;22;28426;-84
2024/03/19 03:55:16;;;;;;;;;0.00;0.00;;;;;16.25;100.00;101403.00;6296487;22;28483;-85
2024/03/19 03:57:41;;;;;;;;;0.00;0.00;;;;;16.36;100.00;101422.72;6324127;22;48041;-85
2024/03/19 04:00:11;;;;;;;;;0.00;0.00;;;;;16.34;100.00;101414.88;6296729;22;28317;-86
2024/03/19 04:02:37;;;;;;;;;0.00;0.00;;;;;16.38;100.00;101418.22;6324744;22;28235;-85
2024/03/19 04:05:03;;;;;;;;;0.00;0.00;;;;;16.38;100.00;101416.47;6323965;22;28536;-85
2024/03/19 04:07:28;;;;;;;;;0.00;0.00;;;;;16.35;100.00;101413.97;6322433;22;28405;-85
2024/03/19 04:09:54;;;;;;;;;0.00;0.00;;;;;16.27;100.00;101405.59;6297476;22;28361;-85
2024/03/19 04:12:19;;;;;;;;;0.00;0.00;;;;;16.23;100.00;101406.59;6296985;22;28469;-85
2024/03/19 04:14:45;;;;;;;;;0.00;0.00;;;;;16.12;100.00;101401.81;6296701;22;30940;-85
2024/03/19 04:17:12;;;;;;;;;0.00;0.00;;;;;16.05;100.00;101398.59;6296708;22;41808;-85
2024/03/19 04:19:38;;;;;;;;;0.00;0.00;;;;;16.02;100.00;101403.09;6324549;22;28343;-85
2024/03/19 04:22:03;;;;;;;;;0.00;0.00;;;;;15.91;100.00;101414.03;6297017;22;28345;-85
2024/03/19 04:24:28;;;;;;;;;0.00;0.00;;;;;15.80;100.00;101414.47;6324196;22;30017;-86
2024/03/19 04:26:54;;;;;;;;;0.00;0.00;;;;;15.70;100.00;101415.72;6322053;22;43102;-86
2024/03/19 04:29:20;;;;;;;;;0.00;0.00;;;;;15.68;100.00;101421.03;6323622;22;28392;-85
2024/03/19 04:31:45;;;;;;;;;0.00;0.00;;;;;15.56;100.00;101407.53;6324255;22;37418;-85
2024/03/19 04:34:12;;;;;;;;;0.00;0.00;;;;;14.93;100.00;101400.28;6324224;22;29064;-85
2024/03/19 04:36:37;;;;;;;;;0.00;0.00;;;;;15.35;100.00;101409.22;6296696;22;28341;-86
2024/03/19 04:39:03;;;;;;;;;0.00;0.00;;;;;15.44;100.00;101396.59;6270442;22;35706;-85
2024/03/19 04:41:28;;;;;;;;;0.00;0.00;;;;;15.52;100.00;101405.97;6324411;22;28403;-85
2024/03/19 04:43:54;;;;;;;;;0.00;0.00;;;;;15.45;100.00;101415.81;6296866;22;29461;-86
2024/03/19 04:46:19;;;;;;;;;0.00;0.00;;;;;15.45;100.00;101415.81;6322937;22;29231;-86
2024/03/19 04:48:45;;;;;;;;;0.00;0.00;;;;;15.39;100.00;101418.69;6296667;22;38633;-85
2024/03/19 04:51:11;;;;;;;;;0.00;0.00;;;;;15.44;100.00;101427.25;6296091;22;28573;-85
2024/03/19 04:53:37;;;;;;;;;0.00;0.00;;;;;15.40;100.00;101417.78;6324209;22;29084;-86
2024/03/19 04:56:03;;;;;;;;;0.00;0.00;;;;;15.43;100.00;101433.38;6323324;22;48555;-84
2024/03/19 04:58:28;;;;;;;;;0.00;0.00;;;;;15.41;100.00;101436.06;6296911;22;28474;-86
2024/03/19 05:00:53;;;;;;;;;0.00;0.00;;;;;15.05;100.00;101431.28;6324550;22;28409;-86
2024/03/19 05:03:19;;;;;;;;;0.00;0.00;;;;;15.34;100.00;101425.88;6323531;22;43180;-85
2024/03/19 05:05:44;;;;;;;;;0.00;0.00;;;;;15.35;100.00;101432.84;6323633;22;44741;-86
2024/03/19 05:08:09;;;;;;;;;0.00;0.00;;;;;14.80;100.00;101436.59;6323421;22;40206;-85
2024/03/19 05:10:35;;;;;;;;;0.00;0.00;;;;;14.63;100.00;101428.44;6323979;22;28305;-85
2024/03/19 05:13:00;;;;;;;;;0.00;0.00;;;;;15.00;100.00;101430.59;6324224;22;38844;-85
2024/03/19 05:15:25;;;;;;;;;0.00;0.00;;;;;15.18;100.00;101420.38;6323702;22;36420;-86
2024/03/19 05:17:51;;;;;;;;;0.00;0.00;;;;;15.39;100.00;101432.66;6296497;22;28340;-86
2024/03/19 05:20:16;;;;;;;;;0.00;0.00;;;;;15.17;100.00;101432.59;6296588;22;28218;-86
2024/03/19 05:22:42;;;;;;;;;0.00;0.00;;;;;15.13;100.00;101440.66;6323993;22;29185;-86
2024/03/19 05:25:07;;;;;;;;;0.00;0.00;;;;;15.08;100.00;101443.41;6297112;22;28343;-86
2024/03/19 05:27:33;;;;;;;;;0.00;0.00;;;;;15.07;100.00;101439.09;6324507;22;28299;-85
2024/03/19 05:29:58;;;;;;;;;0.00;0.00;;;;;15.00;100.00;101443.72;6295872;22;44784;-85
2024/03/19 05:32:23;;;;;;;;;0.00;0.00;;;;;15.01;100.00;101441.97;6324657;22;28337;-85
2024/03/19 05:34:49;;;;;;;;;0.00;0.00;;;;;14.98;100.00;101448.16;6323492;22;34580;-85
2024/03/19 05:37:14;;;;;;;;;0.00;0.00;;;;;15.02;100.00;101448.91;6323908;22;28242;-84
2024/03/19 05:39:39;;;;;;;;;0.00;0.00;;;;;15.09;100.00;101455.63;6323260;22;41603;-85
2024/03/19 05:42:06;;;;;;;;;0.00;0.00;;;;;15.05;100.00;101452.28;6270419;22;37555;-86
2024/03/19 05:44:31;;;;;;;;;0.00;0.00;;;;;15.17;100.00;101455.34;6296841;22;27911;-86
2024/03/19 05:46:57;;;;;;;;;0.00;0.00;;;;;15.21;100.00;101449.97;6323777;22;28329;-85
2024/03/19 05:49:23;;;;;;;;;0.00;0.00;;;;;15.30;100.00;101456.59;6324163;22;28380;-85
2024/03/19 05:51:49;;;;;;;;;0.00;0.00;;;;;15.35;100.00;101457.28;6296982;22;28393;-85
2024/03/19 05:54:14;;;;;;;;;0.00;0.00;;;;;15.38;100.00;101461.56;6296064;22;28488;-85
2024/03/19 05:56:40;;;;;;;;;0.00;0.00;;;;;15.40;100.00;101454.50;6295842;22;46779;-84
2024/03/19 05:59:05;;;;;;;;;0.00;0.00;;;;;15.45;100.00;101465.66;6323240;22;41964;-86
2024/03/19 06:01:30;;;;;;;;;0.00;0.00;;;;;15.47;100.00;101464.72;6324208;22;36868;-86
2024/03/19 06:03:56;;;;;;;;;0.00;0.00;;;;;15.53;100.00;101461.00;6323403;22;44089;-86
2024/03/19 06:06:21;;;;;;;;;0.00;0.00;;;;;15.60;100.00;101467.72;6295486;22;47316;-85
2024/03/19 06:08:46;;;;;;;;;0.00;0.00;;;;;15.63;100.00;101464.13;6296872;22;28305;-86
2024/03/19 06:11:12;;;;;;;;;0.00;0.00;;;;;15.68;100.00;101467.44;6323191;22;38480;-82
2024/03/19 06:13:37;;;;;;;;;0.00;0.00;;;;;15.94;100.00;101469.06;6295656;22;35081;-85
2024/03/19 06:16:05;;;;;;;;;0.00;0.00;;;;;16.01;100.00;101470.53;6296554;22;28324;-86
2024/03/19 06:18:30;;;;;;;;;0.00;0.00;;;;;15.57;100.00;101473.09;6322882;22;28431;-85
2024/03/19 06:20:56;;;;;;;;;0.00;0.00;;;;;15.47;100.00;101467.34;6295745;22;28525;-84
2024/03/19 06:23:21;;;;;;;;;0.00;0.00;;;;;15.48;100.00;101469.03;6323644;22;28373;-85
2024/03/19 06:25:47;;;;;;;;;0.00;0.00;;;;;15.48;100.00;101473.44;6295243;22;43066;-85
2024/03/19 06:28:13;;;;;;;;;0.00;0.00;;;;;15.49;100.00;101475.16;6294481;22;28573;-87
2024/03/19 06:30:39;;;;;;;;;0.00;0.00;;;;;15.51;100.00;101480.31;6296111;22;28533;-89
2024/03/19 06:33:06;;;;;;;;;0.00;0.00;;;;;15.54;100.00;101467.09;6321463;22;27954;-88
2024/03/19 06:35:39;;;;;;;;;0.00;0.00;;;;;15.58;100.00;101466.94;6324390;22;28420;-91
2024/03/19 06:38:04;;;;;;;;;0.00;0.00;;;;;15.37;100.00;101463.34;6323367;22;28365;-90
2024/03/19 06:40:30;;;;;;;;;0.00;0.00;;;;;15.32;100.00;101459.19;6323979;22;28454;-88
2024/03/19 06:42:56;;;;;;;;;0.00;0.00;;;;;15.34;100.00;101468.72;6297432;22;28775;-88
2024/03/19 06:45:34;;;;;;;;;;;;;;;;;;;;;
2024/03/19 06:48:18;;;;;;;;;0.00;0.00;;;;;15.31;100.00;101474.06;6295583;22;56243;-91
2024/03/19 06:51:01;;;;;;;;;0.00;0.00;;;;;15.35;100.00;101480.06;6301308;22;31346;-91
2024/03/19 06:53:27;;;;;;;;;0.00;0.00;;;;;15.41;100.00;101490.31;6324494;22;28536;-88
2024/03/19 06:56:08;;;;;;;;;0.00;0.00;;;;;15.36;100.00;101473.88;6299316;22;28273;-88
2024/03/19 07:02:06;;;;;;;;;0.00;0.00;;;;;15.40;100.00;101480.75;6319978;22;28308;-86
2024/03/19 07:04:38;;;;;;;;;0.00;0.00;;;;;15.38;100.00;101487.78;6295811;22;28432;-90
2024/03/19 07:07:13;;;;;;;;;0.00;0.00;;;;;15.86;100.00;101486.88;6324952;22;27936;-86
2024/03/19 07:09:41;;;;;;;;;0.00;0.00;;;;;15.65;100.00;101483.28;6298093;22;28298;-87
2024/03/19 07:12:07;;;;;;;;;0.00;0.00;;;;;15.44;100.00;101492.84;6298559;22;28450;-90
2024/03/19 07:14:41;;;;;;;;;3.00;3.00;;;;;15.37;100.00;101484.31;6323838;22;29160;-89
2024/03/19 07:20:58;;;;;;;;;0.00;0.00;;;;;15.34;100.00;101492.31;6326209;22;28545;-91
2024/03/19 07:23:56;;;;;;;;;0.00;0.00;;;;;15.42;100.00;101497.28;6271631;22;29764;-88
2024/03/19 07:26:50;;;;;;;;;0.00;0.00;;;;;15.47;100.00;101504.06;6273031;22;28779;-88
2024/03/19 07:29:32;;;;;;;;;0.00;0.00;;;;;15.45;100.00;101503.28;6297356;22;28518;-89
2024/03/19 07:32:25;;;;;;;;;0.00;0.00;;;;;15.49;100.00;101525.00;6297497;22;28261;-89
2024/03/19 07:34:57;;;;;;;;;0.00;0.00;;;;;15.44;100.00;101509.41;6272735;22;30048;-89
2024/03/19 07:37:27;;;;;;;;;0.00;0.00;;;;;15.51;100.00;101523.19;6322896;22;28477;-87
2024/03/19 07:39:58;;;;;;;;;2.25;2.25;;;;;15.52;100.00;101518.78;6296607;22;28420;-89
2024/03/19 07:42:27;;;;;;;;;0.00;0.00;;;;;15.62;100.00;101528.88;6297214;22;28341;-86
2024/03/19 07:45:14;;;;;;;;;0.00;0.00;;;;;15.67;100.00;101536.56;6320666;22;29081;-85
2024/03/19 07:47:39;;;;;;;;;0.00;0.00;;;;;15.61;100.00;101514.03;6287851;22;28486;-85
2024/03/19 07:50:07;;;;;;;;;0.00;0.00;;;;;15.73;100.00;101532.84;6322108;22;28473;-85
2024/03/19 07:52:59;;;;;;;;;0.00;0.00;;;;;15.91;100.00;101545.31;6258610;22;28846;-85
2024/03/19 07:55:33;;;;;;;;;0.00;0.00;;;;;16.00;100.00;101533.59;6258796;22;28752;-85
2024/03/19 07:58:05;;;;;;;;;0.00;0.00;;;;;16.27;100.00;101552.69;6259340;22;28313;-85
2024/03/19 08:00:31;;;;;;;;;0.00;0.00;;;;;16.47;100.00;101553.66;6260278;22;28247;-85
2024/03/19 08:03:04;;;;;;;;;0.00;0.00;;;;;16.61;100.00;101554.78;6260820;22;28427;-84
2024/03/19 08:05:32;;;;;;;;;0.00;0.00;;;;;16.59;100.00;101540.00;6260470;22;28368;-85
2024/03/19 08:07:59;;;;;;;;;3.00;2.25;;;;;16.60;100.00;101552.22;6259756;22;28405;-84
2024/03/19 08:10:24;;;;;;;;;0.00;0.00;;;;;16.64;100.00;101574.81;6260026;22;28328;-85
2024/03/19 08:12:49;;;;;;;;;0.00;0.00;;;;;16.56;100.00;101566.41;6259173;22;28340;-84
2024/03/19 08:15:21;;;;;;;;;0.25;0.25;;;;;16.57;100.00;101568.13;6259943;22;28573;-86
2024/03/19 08:17:54;;;;;;;;;9.00;3.00;;;;;16.53;100.00;101567.41;6261148;22;28222;-85
2024/03/19 08:20:20;;;;;;;;;0.00;0.00;;;;;16.53;100.00;101563.91;6260518;22;28584;-86
2024/03/19 08:22:45;;;;;;;;;0.00;0.00;;;;;16.58;100.00;101569.81;6260923;22;28390;-86
2024/03/19 08:25:18;;;;;;;;;0.00;0.00;;;;;16.70;100.00;101571.97;6261032;22;28657;-85
2024/03/19 08:27:46;;;;;;;;;0.00;0.00;;;;;16.75;100.00;101566.50;6254032;22;28413;-85
2024/03/19 08:30:21;;;;;;;;;0.00;0.00;;;;;16.90;100.00;101575.56;6260061;22;36367;-85
2024/03/19 08:32:47;;;;;;;;;0.00;0.00;;;;;17.01;100.00;101576.84;6261276;22;28409;-85
2024/03/19 08:35:12;;;;;;;;;0.00;0.00;;;;;16.98;100.00;101570.84;6260601;22;29099;-86
2024/03/19 08:37:38;;;;;;;;;0.00;0.00;;;;;17.20;100.00;101584.78;6260762;22;28266;-85
2024/03/19 08:40:06;;;;;;;;;0.00;0.00;;;;;17.29;100.00;101594.06;6258219;22;41891;-86
2024/03/19 08:42:44;;;;;;;;;0.00;0.00;;;;;17.45;100.00;101585.47;6261272;22;28428;-84
2024/03/19 08:45:23;;;;;;;;;0.00;0.00;;;;;17.34;100.00;101578.06;6259302;22;44685;-86
2024/03/19 08:47:56;;;;;;;;;0.00;0.00;;;;;17.59;100.00;101594.47;6254180;22;28289;-86
2024/03/19 08:50:21;;;;;;;;;0.00;0.00;;;;;17.58;100.00;101590.13;6262197;22;28388;-86
2024/03/19 08:52:53;;;;;;;;;0.00;0.00;;;;;17.73;100.00;101595.63;6260211;22;34203;-85
2024/03/19 08:55:18;;;;;;;;;0.00;0.00;;;;;17.90;100.00;101600.16;6257807;22;39686;-85
2024/03/19 08:57:43;;;;;;;;;0.00;0.00;;;;;18.05;100.00;101604.69;6233277;22;28739;-85
2024/03/19 09:00:15;;;;;;;;;0.00;0.00;;;;;18.13;100.00;101596.47;6261346;22;39207;-85
2024/03/19 09:02:55;;;;;;;;;0.00;0.00;;;;;18.30;100.00;101593.03;6261683;22;28420;-85
2024/03/19 09:05:27;;;;;;;;;0.00;0.00;;;;;18.41;100.00;101598.63;6258278;22;28456;-86
2024/03/19 09:07:52;;;;;;;;;0.00;0.00;;;;;18.52;100.00;101603.41;6258303;22;48494;-85
2024/03/19 09:10:21;;;;;;;;;0.00;0.00;;;;;18.81;100.00;101598.50;6259763;22;28328;-86
2024/03/19 09:12:52;;;;;;;;;0.00;0.00;;;;;18.91;100.00;101599.75;6260755;22;28615;-85
2024/03/19 09:15:26;;;;;;;;;0.00;0.00;;;;;18.88;100.00;101584.91;6260373;22;28591;-86
2024/03/19 09:17:54;;;;;;;;;0.00;0.00;;;;;18.99;100.00;101587.00;6263122;22;28365;-86
2024/03/19 09:20:20;;;;;;;;;0.00;0.00;;;;;19.01;100.00;101589.56;6261307;22;28751;-85
2024/03/19 09:22:53;;;;;;;;;0.00;0.00;;;;;19.15;100.00;101603.78;6259116;22;28057;-85
2024/03/19 09:25:21;;;;;;;;;27.00;27.00;;;;;19.22;100.00;101601.66;6282765;22;28725;-85
2024/03/19 09:27:47;;;;;;;;;0.00;0.00;;;;;19.24;100.00;101602.47;6284249;22;28399;-85
2024/03/19 09:30:12;;;;;;;;;0.00;0.00;;;;;19.31;100.00;101608.25;6260994;22;28272;-84
2024/03/19 09:32:38;;;;;;;;;0.00;0.00;;;;;19.29;100.00;101600.41;6261288;22;28490;-83
2024/03/19 09:35:06;;;;;;;;;0.00;0.00;;;;;19.52;100.00;101601.88;6284765;22;28771;-81
2024/03/19 09:37:54;;;;;;;;;0.00;0.00;;;;;19.62;100.00;101596.09;6260317;22;28329;-84
2024/03/19 09:40:20;;;;;;;;;0.00;0.00;;;;;19.60;100.00;101600.59;6260515;22;28421;-83
2024/03/19 09:42:48;;;;;;;;;0.00;0.00;;;;;19.56;100.00;101593.75;6258271;22;28487;-84
2024/03/19 09:45:30;;;;;;;;;0.00;0.00;;;;;19.51;100.00;101589.56;6260121;22;38231;-83
2024/03/19 09:47:59;;;;;;;;;0.00;0.00;;;;;19.39;100.00;101589.38;6258714;22;28656;-83
2024/03/19 09:53:26;;;;;;;;;0.00;0.00;;;;;19.22;100.00;101606.94;6264017;22;28404;-84
2024/03/19 09:56:07;;;;;;;;;0.00;0.00;;;;;19.18;100.00;101608.03;6290676;22;28662;-84
2024/03/19 09:58:33;;;;;;;;;0.00;0.00;;;;;19.01;100.00;101598.34;6289599;22;28410;-84
2024/03/19 10:01:09;;;;;;;;;0.00;0.00;;;;;19.02;100.00;101596.53;6291127;22;28597;-84
2024/03/19 10:03:42;;;;;;;;;0.00;0.00;;;;;19.19;100.00;101590.44;6285429;22;28572;-82
2024/03/19 10:06:15;;;;;;;;;0.00;0.00;;;;;19.13;100.00;101603.00;6291417;22;28493;-81
2024/03/19 10:08:47;;;;;;;;;0.00;0.00;;;;;19.06;100.00;101593.69;6291185;22;28401;-81
2024/03/19 10:11:13;;;;;;;;;0.00;0.00;;;;;19.01;100.00;101590.41;6289516;22;28377;-81
2024/03/19 10:13:39;;;;;;;;;0.00;0.00;;;;;19.27;100.00;101590.88;6291483;22;27857;-81
2024/03/19 10:16:05;;;;;;;;;0.00;0.00;;;;;19.34;100.00;101597.53;6291204;22;29173;-81
2024/03/19 10:18:30;;;;;;;;;0.00;0.00;;;;;19.33;100.00;101588.78;6294630;22;28395;-81
2024/03/19 10:20:58;;;;;;;;;0.00;0.00;;;;;19.33;100.00;101570.31;6293427;22;28726;-82
2024/03/19 10:23:26;;;;;;;;;0.00;0.00;;;;;19.30;100.00;101570.44;6293024;22;28345;-81
2024/03/19 10:25:53;;;;;;;;;0.00;0.00;;;;;19.18;100.00;101581.63;6294380;22;28575;-81
2024/03/19 10:28:21;;;;;;;;;3.50;1.00;;;;;19.08;100.00;101583.91;6294544;22;28325;-82
2024/03/19 10:30:49;;;;;;;;;0.00;0.00;;;;;19.08;100.00;101583.06;6293762;22;41917;-82
2024/03/19 10:33:18;;;;;;;;;0.00;0.00;;;;;19.11;100.00;101574.97;6292905;22;28522;-82
2024/03/19 10:35:43;;;;;;;;;0.00;0.00;;;;;19.17;100.00;101565.88;6292906;22;29372;-83
2024/03/19 10:38:15;;;;;;;;;0.00;0.00;;;;;19.30;100.00;101578.38;6292671;22;35226;-82
2024/03/19 10:40:43;;;;;;;;;0.00;0.00;;;;;19.07;100.00;101570.78;6291560;22;28359;-82
2024/03/19 10:46:48;;;;;;;;;0.00;0.00;;;;;19.33;100.00;101557.09;6294564;22;28385;-84
2024/03/19 10:49:19;;;;;;;;;0.00;0.00;;;;;19.33;100.00;101554.47;6293700;22;28426;-83
2024/03/19 10:51:49;;;;;;;;;0.00;0.00;;;;;19.42;100.00;101561.03;6276909;22;28516;-83
2024/03/19 10:54:17;;;;;;;;;0.00;0.00;;;;;19.74;100.00;101569.03;6261098;22;28570;-84
2024/03/19 10:56:43;;;;;;;;;0.00;0.00;;;;;19.87;100.00;101569.22;6262885;22;28354;-82
2024/03/19 10:59:12;;;;;;;;;0.00;0.00;;;;;20.04;100.00;101581.50;6263105;22;28332;-85
2024/03/19 11:02:00;;;;;;;;;0.00;0.00;;;;;19.96;100.00;101566.06;6264043;22;28486;-84
2024/03/19 11:04:44;;;;;;;;;0.00;0.00;;;;;20.14;100.00;101560.72;6286836;22;28352;-87
2024/03/19 11:07:27;;;;;;;;;0.00;0.00;;;;;20.25;100.00;101564.44;6262370;22;28335;-86
2024/03/19 11:10:02;;;;;;;;;0.00;0.00;;;;;20.31;100.00;101561.44;6260846;22;28555;-85
2024/03/19 11:12:48;;;;;;;;;0.00;0.00;;;;;20.54;100.00;101569.88;6262763;22;28376;-88
2024/03/19 11:15:14;;;;;;;;;0.50;0.50;;;;;20.66;100.00;101566.53;6232418;22;28562;-86
2024/03/19 11:17:52;;;;;;;;;0.00;0.00;;;;;20.67;100.00;101570.91;6260607;22;28615;-87
2024/03/19 11:20:18;;;;;;;;;0.00;0.00;;;;;21.00;100.00;101568.97;6261871;22;28277;-90
2024/03/19 11:22:47;;;;;;;;;0.00;0.00;;;;;21.16;100.00;101559.19;6263425;22;28438;-87
2024/03/19 11:25:29;;;;;;;;;0.50;0.25;;;;;21.31;100.00;101551.25;6261491;22;28480;-87
2024/03/19 11:27:55;;;;;;;;;0.00;0.00;;;;;21.61;100.00;101569.72;6262660;22;29287;-88
2024/03/19 11:30:33;;;;;;;;;0.00;0.00;;;;;22.22;100.00;101564.97;6206467;22;28560;-87
2024/03/19 11:32:58;;;;;;;;;0.00;0.00;;;;;22.75;100.00;101550.00;6261336;22;28538;-88
2024/03/19 11:35:24;;;;;;;;;0.00;0.00;;;;;23.39;100.00;101538.56;6234805;22;39555;-89
2024/03/19 11:37:56;;;;;;;;;0.00;0.00;;;;;25.91;100.00;101549.81;6262930;22;28475;-87